Sandy City
, Sandy
Last Weather Update:09/29/2011 11:00:00 PM
Date
ETo
ETc
Rain
Irrigation
Req
Temp
Max
Temp
Min
Temp
Avg
Avg RH
Avg Wind
Avg Solar
inches
inches
incehs
inches
F
F
F
%
%
watts/m2
08/01/2011 0.13" 0.11" 0.51" -0.30" 80.9° 65.0° 72.5° 76.1% 0.5 MPH 192.8w/m2
08/02/2011 0.22" 0.19" 0.00" 0.19" 90.3° 60.0° 75.2° 60.3% 0.2 MPH 323.2w/m2
08/03/2011 0.18" 0.16" 0.07" 0.10" 83.3° 62.2° 73.6° 63.6% 0.6 MPH 278.5w/m2
08/04/2011 0.19" 0.17" 0.00" 0.17" 89.3° 64.3° 76.8° 49.3% 0.5 MPH 293.2w/m2
08/05/2011 0.25" 0.21" 0.00" 0.21" 92.1° 64.0° 78.7° 35.5% 0.6 MPH 369.9w/m2
08/06/2011 0.24" 0.21" 0.00" 0.21" 93.4° 57.9° 76.8° 31.4% 0.4 MPH 375.5w/m2
08/07/2011 0.24" 0.21" 0.00" 0.21" 93.5° 61.6° 78.3° 26.8% 0.6 MPH 370.9w/m2
08/08/2011 0.24" 0.20" 0.00" 0.20" 92.8° 60.5° 77.3° 34.9% 0.3 MPH 361.9w/m2
08/09/2011 0.24" 0.20" 0.00" 0.20" 89.4° 64.8° 78.8° 26.6% 0.5 MPH 361.6w/m2
08/10/2011 0.23" 0.20" 0.00" 0.20" 92.9° 58.5° 76.2° 33.1% 0.3 MPH 358.6w/m2
08/11/2011 0.23" 0.19" 0.00" 0.19" 89.8° 65.1° 77.7° 32.2% 0.4 MPH 354.3w/m2
08/12/2011 0.23" 0.19" 0.00" 0.19" 89.2° 59.7° 75.1° 41.7% 0.3 MPH 351.8w/m2
08/13/2011 0.22" 0.18" 0.00" 0.18" 98.2° 59.6° 79.4° 36.7% 0.5 MPH 334.6w/m2
08/14/2011 0.21" 0.17" 0.03" 0.14" 92.2° 66.2° 79.9° 43.9% 0.5 MPH 309.7w/m2
08/15/2011 0.19" 0.15" 0.19" 0.00" 89.4° 61.4° 74.3° 63.3% 0.6 MPH 287.5w/m2
08/16/2011 0.22" 0.17" 0.00" 0.17" 86.3° 60.1° 73.7° 52.0% 0.2 MPH 335.0w/m2
08/17/2011 0.23" 0.18" 0.00" 0.18" 96.2° 60.4° 77.4° 40.9% 0.4 MPH 344.1w/m2
08/18/2011 0.23" 0.18" 0.00" 0.18" 93.4° 59.2° 77.6° 35.8% 0.3 MPH 348.1w/m2
08/19/2011 0.17" 0.13" 0.00" 0.13" 93.6° 68.9° 80.6° 41.3% 0.4 MPH 244.6w/m2
08/20/2011 0.22" 0.17" 0.03" 0.14" 95.4° 65.3° 78.2° 49.0% 0.5 MPH 314.4w/m2
08/21/2011 0.21" 0.16" 0.00" 0.16" 95.6° 63.7° 79.8° 43.7% 0.6 MPH 321.0w/m2
08/22/2011 0.22" 0.17" 0.00" 0.17" 96.6° 69.9° 82.1° 35.4% 0.6 MPH 332.2w/m2
08/23/2011 0.22" 0.17" 0.00" 0.17" 96.6° 64.2° 80.7° 36.5% 0.3 MPH 328.6w/m2
08/24/2011 0.19" 0.15" 0.00" 0.15" 100.6° 64.4° 81.1° 37.7% 0.3 MPH 282.2w/m2
08/25/2011 0.18" 0.13" 0.02" 0.12" 96.5° 73.3° 83.2° 37.3% 0.7 MPH 242.1w/m2
08/26/2011 0.20" 0.14" 0.00" 0.14" 97.1° 66.4° 83.0° 37.3% 0.6 MPH 264.1w/m2
08/27/2011 0.20" 0.14" 0.08" 0.08" 95.7° 71.1° 83.6° 40.2% 0.5 MPH 281.0w/m2
08/28/2011 0.19" 0.14" 0.32" -0.12" 90.4° 63.3° 75.9° 67.1% 0.5 MPH 286.9w/m2
08/29/2011 0.21" 0.15" 0.06" 0.10" 91.2° 61.2° 75.8° 63.2% 0.5 MPH 317.2w/m2
08/30/2011 0.19" 0.13" 0.00" 0.13" 94.5° 64.0° 80.8° 37.6% 0.8 MPH 283.8w/m2
08/31/2011 0.21" 0.15" 0.00" 0.15" 93.7° 68.6° 82.2° 29.9% 1.0 MPH 309.5w/m2
Totals: 6.52" 5.20" 1.31" 4.15" 100.6° 57.9° 78.3° 43.2% 0.5 MPH 314.8w/m2